createdAt,value
2018-01-08T00:00:20.737Z,14.20
2018-01-08T00:02:49.107Z,15.57
2018-01-08T00:05:16.701Z,14.63
2018-01-08T00:07:44.297Z,15.10
2018-01-08T00:10:19.800Z,14.80
2018-01-08T00:12:48.171Z,16.13
2018-01-08T00:15:16.520Z,14.20
2018-01-08T00:17:44.147Z,16.47
2018-01-08T00:20:11.743Z,14.93
2018-01-08T00:22:39.324Z,16.60
2018-01-08T00:25:08.846Z,15.70
2018-01-08T00:27:37.185Z,16.63
2018-01-08T00:30:04.801Z,14.47
2018-01-08T00:32:32.380Z,15.40
2018-01-08T00:34:59.960Z,15.47
2018-01-08T00:37:27.533Z,16.87
2018-01-08T00:39:55.126Z,16.03
2018-01-08T00:42:23.514Z,16.20
2018-01-08T00:44:51.100Z,18.73
2018-01-08T00:47:18.695Z,16.53
2018-01-08T00:49:46.289Z,16.00
2018-01-08T00:52:14.651Z,15.77
2018-01-08T00:54:43.050Z,16.80
2018-01-08T00:57:11.391Z,16.73
2018-01-08T00:59:39.018Z,17.77
2018-01-08T01:02:06.611Z,17.70
2018-01-08T01:04:34.217Z,16.23
2018-01-08T01:07:01.810Z,17.67
2018-01-08T01:09:29.390Z,18.17
2018-01-08T01:11:57.018Z,16.73
2018-01-08T01:14:24.616Z,18.47
2018-01-08T01:16:52.236Z,18.10
2018-01-08T01:19:19.840Z,17.37
2018-01-08T01:21:47.447Z,18.67
2018-01-08T01:24:15.042Z,19.20
2018-01-08T01:26:42.624Z,19.10
2018-01-08T01:29:10.241Z,18.00
2018-01-08T01:31:37.842Z,18.40
2018-01-08T01:34:05.468Z,18.37
2018-01-08T01:36:33.068Z,19.00
2018-01-08T01:39:00.665Z,18.20
2018-01-08T01:41:42.269Z,18.67
2018-01-08T01:44:09.857Z,19.30
2018-01-08T01:46:37.478Z,19.40
2018-01-08T01:49:17.778Z,19.57
2018-01-08T01:51:45.400Z,19.70
2018-01-08T01:54:13.782Z,19.00
2018-01-08T01:56:42.132Z,19.47
2018-01-08T01:59:09.715Z,19.43
2018-01-08T02:01:38.080Z,19.50
2018-01-08T02:04:06.585Z,19.57
2018-01-08T02:06:34.930Z,20.77
2018-01-08T02:09:02.541Z,19.10
2018-01-08T02:11:30.130Z,20.57
2018-01-08T02:13:57.719Z,21.33
2018-01-08T02:16:25.328Z,20.27
2018-01-08T02:18:52.900Z,20.23
2018-01-08T02:21:20.512Z,20.60
2018-01-08T02:23:48.879Z,20.23
2018-01-08T02:26:16.507Z,20.90
2018-01-08T02:28:45.623Z,20.80
2018-01-08T02:31:13.262Z,21.60
2018-01-08T02:33:40.879Z,20.10
2018-01-08T02:36:09.225Z,21.60
2018-01-08T02:38:36.839Z,20.93
2018-01-08T02:41:04.417Z,20.07
2018-01-08T02:43:32.016Z,20.57
2018-01-08T02:45:59.597Z,21.27
2018-01-08T02:48:27.180Z,21.70
2018-01-08T02:50:54.762Z,19.87
2018-01-08T02:53:22.357Z,20.80
2018-01-08T02:55:49.964Z,21.13
2018-01-08T02:58:17.562Z,20.50
2018-01-08T03:00:45.183Z,17.97
2018-01-08T03:03:12.779Z,21.87
2018-01-08T03:05:40.374Z,21.63
2018-01-08T03:08:07.966Z,22.73
2018-01-08T03:10:35.551Z,20.40
2018-01-08T03:13:03.156Z,20.57
2018-01-08T03:15:30.740Z,20.73
2018-01-08T03:17:59.115Z,20.17
2018-01-08T03:20:27.464Z,21.50
2018-01-08T03:22:55.064Z,21.00
2018-01-08T03:25:22.658Z,21.30
2018-01-08T03:27:50.241Z,20.23
2018-01-08T03:30:31.225Z,20.37
2018-01-08T03:32:58.822Z,22.50
2018-01-08T03:35:26.450Z,22.30
2018-01-08T03:37:54.046Z,20.30
2018-01-08T03:40:21.646Z,20.80
2018-01-08T03:42:49.223Z,20.40
2018-01-08T03:45:16.827Z,21.07
2018-01-08T03:47:45.211Z,22.50
2018-01-08T03:50:13.664Z,20.40
2018-01-08T03:52:41.314Z,22.07
2018-01-08T03:55:08.899Z,21.03
2018-01-08T03:57:37.240Z,20.60
2018-01-08T04:00:04.817Z,21.53
2018-01-08T04:02:32.397Z,21.00
2018-01-08T04:05:00.784Z,22.50
2018-01-08T04:07:29.135Z,22.83
2018-01-08T04:09:56.750Z,21.83
2018-01-08T04:12:24.329Z,21.70
2018-01-08T04:14:51.908Z,22.43
2018-01-08T04:17:19.532Z,22.00
2018-01-08T04:19:47.131Z,22.80
2018-01-08T04:22:15.490Z,21.90
2018-01-08T04:24:43.085Z,23.07
2018-01-08T04:27:10.688Z,22.20
2018-01-08T04:29:38.296Z,23.33
2018-01-08T04:32:05.889Z,21.70
2018-01-08T04:34:34.283Z,21.27
2018-01-08T04:37:01.868Z,20.93
2018-01-08T04:39:29.460Z,23.50
2018-01-08T04:41:57.044Z,22.37
2018-01-08T04:44:25.393Z,22.20
2018-01-08T04:46:53.233Z,23.50
2018-01-08T04:49:20.820Z,20.70
2018-01-08T04:51:48.443Z,22.30
2018-01-08T04:54:16.023Z,22.27
2018-01-08T04:56:43.617Z,21.93
2018-01-08T04:59:11.199Z,22.20
2018-01-08T05:01:39.544Z,23.00
2018-01-08T05:04:07.893Z,23.80
2018-01-08T05:06:35.490Z,21.80
2018-01-08T05:09:03.103Z,23.60
2018-01-08T05:11:30.690Z,23.33
2018-01-08T05:13:58.280Z,23.17
2018-01-08T05:16:25.883Z,23.67
2018-01-08T05:18:53.476Z,22.87
2018-01-08T05:21:21.063Z,22.60
2018-01-08T05:23:48.656Z,22.57
2018-01-08T05:26:17.038Z,21.73
2018-01-08T05:28:44.644Z,23.90
2018-01-08T05:31:12.229Z,22.80
2018-01-08T05:33:39.825Z,23.40
2018-01-08T05:36:07.408Z,23.23
2018-01-08T05:38:35.002Z,24.50
2018-01-08T05:41:02.594Z,22.10
2018-01-08T05:43:30.954Z,22.50
2018-01-08T05:45:58.551Z,21.77
2018-01-08T05:48:26.160Z,23.40
2018-01-08T05:50:53.751Z,22.37
2018-01-08T05:53:22.101Z,22.00
2018-01-08T05:55:49.686Z,24.07
2018-01-08T05:58:18.038Z,23.80
2018-01-08T06:00:45.614Z,23.30
2018-01-08T06:03:13.210Z,23.13
2018-01-08T06:05:40.826Z,22.63
2018-01-08T06:08:08.430Z,22.10
2018-01-08T06:10:36.022Z,20.97
2018-01-08T06:13:03.600Z,21.77
2018-01-08T06:15:31.190Z,23.03
2018-01-08T06:17:59.562Z,22.40
2018-01-08T06:20:27.162Z,21.10
2018-01-08T06:22:54.763Z,22.13
2018-01-08T06:25:22.358Z,20.73
2018-01-08T06:27:50.708Z,21.40
2018-01-08T06:30:18.340Z,21.40
2018-01-08T06:32:45.933Z,20.67
2018-01-08T06:35:13.516Z,21.33
2018-01-08T06:37:41.879Z,22.67
2018-01-08T06:40:09.534Z,22.93
2018-01-08T06:42:37.142Z,24.73
2018-01-08T06:45:04.735Z,22.57
2018-01-08T06:47:32.324Z,21.90
2018-01-08T06:49:59.908Z,22.80
2018-01-08T06:52:28.262Z,24.07
2018-01-08T06:54:55.844Z,23.30
2018-01-08T06:57:24.239Z,23.73
2018-01-08T06:59:51.819Z,22.60
2018-01-08T07:02:19.414Z,22.67
2018-01-08T07:04:46.997Z,22.93
2018-01-08T07:07:14.586Z,21.47
2018-01-08T07:09:42.171Z,23.20
2018-01-08T07:12:09.743Z,23.50
2018-01-08T07:14:37.392Z,22.47
2018-01-08T07:17:04.968Z,24.30
2018-01-08T07:19:52.235Z,23.87
2018-01-08T07:22:20.597Z,22.67
2018-01-08T07:24:48.189Z,23.23
2018-01-08T07:27:15.795Z,23.47
2018-01-08T07:29:43.389Z,23.27
2018-01-08T07:32:12.201Z,24.10
2018-01-08T07:34:39.795Z,21.03
2018-01-08T07:37:07.439Z,22.43
2018-01-08T07:39:35.039Z,22.93
2018-01-08T07:42:02.633Z,21.57
2018-01-08T07:44:30.990Z,23.40
2018-01-08T07:46:58.589Z,21.17
2018-01-08T07:49:26.176Z,21.67
2018-01-08T07:51:53.772Z,21.50
2018-01-08T07:54:21.380Z,21.03
2018-01-08T07:56:48.994Z,21.40
2018-01-08T07:59:16.569Z,20.27
2018-01-08T08:01:44.925Z,20.80
2018-01-08T08:04:12.534Z,20.53
2018-01-08T08:06:40.143Z,22.37
2018-01-08T08:09:07.720Z,24.40
2018-01-08T08:11:35.343Z,22.73
2018-01-08T08:14:02.920Z,21.53
2018-01-08T08:16:30.573Z,21.00
2018-01-08T08:18:58.163Z,20.80
2018-01-08T08:21:25.747Z,21.50
2018-01-08T08:23:54.144Z,21.80
2018-01-08T08:26:21.726Z,21.03
2018-01-08T08:28:49.310Z,20.50
2018-01-08T08:31:16.914Z,22.13
2018-01-08T08:33:45.268Z,22.30
2018-01-08T08:36:12.892Z,20.37
2018-01-08T08:38:40.494Z,20.30
2018-01-08T08:41:08.105Z,21.30
2018-01-08T08:43:35.706Z,20.60
2018-01-08T08:46:03.313Z,21.60
2018-01-08T08:48:54.198Z,19.90
2018-01-08T08:51:22.544Z,20.63
2018-01-08T08:53:50.170Z,22.50
2018-01-08T08:56:17.774Z,20.80
2018-01-08T08:58:45.365Z,22.10
2018-01-08T09:01:13.713Z,20.40
2018-01-08T09:03:41.322Z,19.00
2018-01-08T09:06:08.945Z,20.07
2018-01-08T09:08:36.551Z,20.03
2018-01-08T09:11:04.173Z,21.00
2018-01-08T09:13:31.759Z,20.00
2018-01-08T09:16:00.119Z,19.57
2018-01-08T09:18:28.480Z,20.40
2018-01-08T09:20:56.098Z,21.70
2018-01-08T09:23:23.700Z,20.83
2018-01-08T09:25:51.279Z,19.27
2018-01-08T09:28:18.893Z,21.20
2018-01-08T09:30:46.498Z,19.53
2018-01-08T09:33:14.103Z,20.50
2018-01-08T09:35:41.684Z,20.60
2018-01-08T09:38:09.283Z,19.57
2018-01-08T09:40:36.906Z,20.20
2018-01-08T09:43:04.522Z,19.10
2018-01-08T09:45:32.898Z,20.80
2018-01-08T09:48:01.259Z,20.23
2018-01-08T09:50:28.840Z,19.83
2018-01-08T09:52:57.195Z,19.50
2018-01-08T09:55:24.809Z,20.10
2018-01-08T09:57:52.419Z,19.90
2018-01-08T10:00:20.006Z,20.07
2018-01-08T10:03:00.342Z,18.87
2018-01-08T10:05:39.746Z,19.47
2018-01-08T10:08:19.399Z,18.57
2018-01-08T10:11:10.054Z,17.70
2018-01-08T10:13:50.474Z,18.40
2018-01-08T10:16:29.843Z,18.00
2018-01-08T10:19:09.905Z,19.17
2018-01-08T10:21:37.477Z,18.07
2018-01-08T10:24:05.083Z,18.80
2018-01-08T10:26:32.678Z,18.63
2018-01-08T10:29:01.029Z,17.97
2018-01-08T10:31:28.676Z,19.13
2018-01-08T10:33:56.287Z,17.87
2018-01-08T10:36:24.750Z,19.10
2018-01-08T10:38:52.350Z,18.57
2018-01-08T10:41:25.580Z,19.73
2018-01-08T10:43:59.006Z,20.27
2018-01-08T10:49:22.828Z,18.60
2018-01-08T10:51:49.944Z,20.80
2018-01-08T10:54:17.537Z,19.70
2018-01-08T10:56:45.150Z,19.57
2018-01-08T10:59:12.733Z,18.53
2018-01-08T11:01:46.158Z,18.63
2018-01-08T11:04:13.796Z,18.67
2018-01-08T11:06:42.156Z,19.40
2018-01-08T11:09:09.770Z,18.37
2018-01-08T11:11:37.369Z,18.83
2018-01-08T11:14:05.007Z,19.17
2018-01-08T11:16:32.609Z,18.00
2018-01-08T11:19:00.225Z,20.30
2018-01-08T11:21:27.838Z,17.63
2018-01-08T11:23:56.273Z,19.33
2018-01-08T11:26:23.878Z,18.13
2018-01-08T11:28:51.474Z,19.20
2018-01-08T11:31:19.081Z,18.33
2018-01-08T11:33:46.687Z,19.20
2018-01-08T11:36:14.300Z,18.80
2018-01-08T11:38:41.923Z,19.27
2018-01-08T11:41:09.546Z,18.13
2018-01-08T11:43:37.171Z,19.20
2018-01-08T11:46:04.756Z,18.77
2018-01-08T11:48:32.400Z,18.60
2018-01-08T11:51:00.041Z,18.67
2018-01-08T11:53:27.654Z,18.87
2018-01-08T11:55:55.245Z,18.83
2018-01-08T11:58:23.019Z,18.47
2018-01-08T12:00:50.641Z,18.23
2018-01-08T12:03:18.243Z,19.10
2018-01-08T12:05:45.882Z,19.90
2018-01-08T12:08:13.493Z,18.17
2018-01-08T12:10:41.093Z,18.80
2018-01-08T12:13:09.466Z,18.37
2018-01-08T12:15:37.846Z,18.67
2018-01-08T12:18:25.330Z,18.87
2018-01-08T12:20:52.926Z,17.73
2018-01-08T12:23:20.576Z,17.30
2018-01-08T12:25:54.650Z,17.93
2018-01-08T12:28:23.323Z,17.23
2018-01-08T12:30:51.904Z,18.40
2018-01-08T12:33:20.272Z,18.30
2018-01-08T12:35:50.077Z,17.57
2018-01-08T12:38:23.848Z,19.10
2018-01-08T12:40:51.467Z,17.23
2018-01-08T12:43:19.852Z,18.90
2018-01-08T12:45:47.456Z,18.10
2018-01-08T12:48:15.032Z,18.27
2018-01-08T12:50:46.722Z,18.93
2018-01-08T12:53:14.321Z,17.87
2018-01-08T12:55:42.032Z,18.60
2018-01-08T12:58:09.676Z,17.37
2018-01-08T13:00:37.317Z,17.53
2018-01-08T13:03:04.938Z,16.27
2018-01-08T13:05:32.561Z,17.50
2018-01-08T13:08:00.144Z,17.27
2018-01-08T13:10:28.566Z,17.17
2018-01-08T13:12:56.168Z,16.20
2018-01-08T13:15:23.772Z,17.90
2018-01-08T13:17:51.393Z,17.37
2018-01-08T13:20:19.898Z,17.63
2018-01-08T13:22:47.497Z,16.33
2018-01-08T13:25:15.091Z,17.47
2018-01-08T13:27:42.712Z,16.77
2018-01-08T13:30:10.297Z,17.90
2018-01-08T13:32:37.928Z,16.57
2018-01-08T13:35:05.556Z,16.60
2018-01-08T13:37:33.918Z,16.93
2018-01-08T13:40:01.541Z,16.33
2018-01-08T13:42:29.155Z,19.17
2018-01-08T13:45:02.172Z,17.00
2018-01-08T13:47:29.772Z,16.30
2018-01-08T13:49:57.378Z,16.33
2018-01-08T13:52:24.998Z,17.27
2018-01-08T13:54:52.599Z,18.90
2018-01-08T13:57:21.005Z,17.67
2018-01-08T13:59:48.602Z,18.87
2018-01-08T14:02:16.199Z,17.70
2018-01-08T14:04:44.585Z,16.70
2018-01-08T14:07:12.185Z,18.07
2018-01-08T14:09:39.784Z,18.93
2018-01-08T14:12:08.155Z,17.50
2018-01-08T14:14:35.794Z,17.00
2018-01-08T14:17:03.380Z,18.53
2018-01-08T14:19:30.986Z,17.70
2018-01-08T14:21:58.570Z,17.40
2018-01-08T14:24:26.150Z,18.90
2018-01-08T14:26:53.736Z,17.43
2018-01-08T14:29:22.109Z,19.57
2018-01-08T14:31:49.698Z,19.00
2018-01-08T14:34:17.328Z,18.20
2018-01-08T14:36:44.920Z,19.07
2018-01-08T14:39:12.518Z,16.43
2018-01-08T14:41:40.135Z,18.03
2018-01-08T14:44:08.544Z,17.97
2018-01-08T14:46:36.157Z,17.97
2018-01-08T14:49:04.514Z,19.23
2018-01-08T14:51:32.112Z,19.50
2018-01-08T14:54:00.462Z,21.40
2018-01-08T14:56:28.070Z,18.20
2018-01-08T14:58:55.674Z,18.00
2018-01-08T15:01:23.268Z,19.10
2018-01-08T15:03:51.614Z,17.40
2018-01-08T15:06:19.220Z,18.87
2018-01-08T15:08:47.573Z,17.43
2018-01-08T15:11:15.184Z,18.77
2018-01-08T15:13:42.791Z,18.73
2018-01-08T15:16:12.396Z,17.77
2018-01-08T15:18:39.982Z,18.97
2018-01-08T15:21:08.373Z,19.83
2018-01-08T15:23:35.975Z,20.37
2018-01-08T15:26:03.586Z,19.07
2018-01-08T15:28:31.959Z,19.30
2018-01-08T15:31:00.337Z,18.17
2018-01-08T15:33:28.708Z,19.40
2018-01-08T15:35:56.310Z,20.07
2018-01-08T15:38:23.917Z,18.33
2018-01-08T15:40:51.519Z,17.97
2018-01-08T15:43:19.109Z,18.30
2018-01-08T15:45:46.694Z,18.30
2018-01-08T15:48:16.297Z,19.70
2018-01-08T15:50:43.896Z,18.30
2018-01-08T15:53:12.286Z,18.70
2018-01-08T15:55:39.874Z,18.43
2018-01-08T15:58:07.475Z,18.87
2018-01-08T16:00:35.079Z,17.83
2018-01-08T16:03:02.765Z,18.67
2018-01-08T16:05:30.335Z,17.97
2018-01-08T16:07:58.684Z,17.90
2018-01-08T16:10:26.264Z,17.67
2018-01-08T16:12:53.871Z,18.50
2018-01-08T16:15:21.448Z,19.00
2018-01-08T16:17:49.808Z,16.30
2018-01-08T16:20:17.401Z,17.43
2018-01-08T16:22:44.988Z,18.63
2018-01-08T16:25:12.575Z,17.83
2018-01-08T16:27:40.162Z,18.37
2018-01-08T16:30:08.556Z,17.23
2018-01-08T16:32:36.157Z,18.10
2018-01-08T16:35:03.755Z,18.47
2018-01-08T16:37:31.347Z,18.90
2018-01-08T16:39:58.966Z,19.73
2018-01-08T16:42:26.551Z,17.77
2018-01-08T16:44:54.164Z,18.77
2018-01-08T16:47:27.195Z,18.10
2018-01-08T16:49:54.789Z,21.07
2018-01-08T16:52:22.373Z,18.60
2018-01-08T16:54:49.979Z,19.90
2018-01-08T16:57:18.339Z,18.23
2018-01-08T16:59:52.150Z,18.17
2018-01-08T17:02:19.762Z,22.60
2018-01-08T17:04:47.369Z,24.20
2018-01-08T17:07:14.951Z,19.40
2018-01-08T17:09:42.565Z,18.57
2018-01-08T17:12:10.927Z,32.40
2018-01-08T17:14:38.520Z,58.20
2018-01-08T17:17:06.135Z,30.70
2018-01-08T17:19:33.737Z,19.27
2018-01-08T17:22:01.394Z,17.67
2018-01-08T17:24:28.977Z,20.43
2018-01-08T17:26:56.582Z,21.50
2018-01-08T17:29:24.187Z,21.53
2018-01-08T17:31:51.769Z,19.33
2018-01-08T17:34:19.359Z,18.83
2018-01-08T17:36:46.948Z,19.20
2018-01-08T17:39:14.646Z,19.10
2018-01-08T17:41:42.247Z,19.07
2018-01-08T17:44:11.807Z,18.73
2018-01-08T17:46:39.408Z,18.60
2018-01-08T17:49:07.761Z,18.70
2018-01-08T17:51:35.349Z,18.50
2018-01-08T17:54:02.935Z,19.53
2018-01-08T17:56:30.563Z,18.27
2018-01-08T17:58:58.157Z,19.57
2018-01-08T18:01:25.757Z,19.50
2018-01-08T18:03:53.355Z,17.73
2018-01-08T18:06:20.948Z,18.57
2018-01-08T18:08:48.534Z,18.70
2018-01-08T18:11:31.426Z,19.03
2018-01-08T18:13:59.032Z,17.53
2018-01-08T18:16:26.624Z,24.23
2018-01-08T18:18:54.229Z,24.50
2018-01-08T18:21:21.835Z,27.60
2018-01-08T18:23:49.449Z,18.13
2018-01-08T18:26:17.061Z,37.90
2018-01-08T18:28:45.427Z,29.30
2018-01-08T18:31:13.827Z,28.83
2018-01-08T18:33:54.672Z,19.97
2018-01-08T18:36:23.048Z,29.20
2018-01-08T18:38:50.668Z,18.97
2018-01-08T18:41:18.256Z,19.33
2018-01-08T18:43:45.863Z,19.40
2018-01-08T18:46:13.447Z,20.87
2018-01-08T18:48:41.031Z,18.33
2018-01-08T18:51:10.676Z,19.07
2018-01-08T18:53:38.300Z,16.80
2018-01-08T18:56:05.896Z,19.47
2018-01-08T18:58:33.529Z,19.07
2018-01-08T19:01:01.122Z,19.20
2018-01-08T19:03:29.486Z,19.43
2018-01-08T19:05:57.065Z,19.30
2018-01-08T19:08:25.436Z,19.83
2018-01-08T19:10:53.924Z,19.40
2018-01-08T19:13:22.273Z,20.03
2018-01-08T19:15:49.895Z,20.47
2018-01-08T19:18:18.258Z,19.60
2018-01-08T19:20:46.034Z,18.97
2018-01-08T19:23:14.367Z,23.50
2018-01-08T19:25:43.428Z,23.90
2018-01-08T19:28:11.057Z,21.30
2018-01-08T19:30:38.655Z,23.97
2018-01-08T19:33:13.717Z,24.57
2018-01-08T19:35:47.290Z,21.27
2018-01-08T19:38:21.881Z,24.33
2018-01-08T19:40:55.536Z,19.80
2018-01-08T19:43:23.179Z,19.60
2018-01-08T19:45:52.822Z,20.40
2018-01-08T19:48:33.585Z,19.30
2018-01-08T19:51:01.190Z,26.47
2018-01-08T19:53:28.794Z,19.67
2018-01-08T19:55:56.392Z,20.43
2018-01-08T19:58:41.791Z,22.27
2018-01-08T20:01:10.321Z,22.63
2018-01-08T20:06:41.523Z,25.70
2018-01-08T20:09:09.891Z,21.77
2018-01-08T20:11:38.276Z,32.23
2018-01-08T20:14:07.134Z,30.00
2018-01-08T20:16:34.749Z,43.97
2018-01-08T20:19:02.358Z,47.33
2018-01-08T20:21:29.968Z,48.30
2018-01-08T20:26:50.429Z,38.57
2018-01-08T20:29:18.015Z,25.30
2018-01-08T20:31:46.383Z,21.97
2018-01-08T20:34:14.061Z,25.17
2018-01-08T20:36:42.443Z,30.90
2018-01-08T20:39:10.025Z,22.53
2018-01-08T20:44:51.338Z,37.60
2018-01-08T20:47:18.941Z,22.17
2018-01-08T20:49:46.604Z,21.77
2018-01-08T20:52:14.184Z,23.27
2018-01-08T20:54:41.819Z,19.67
2018-01-08T20:57:09.473Z,21.67
2018-01-08T20:59:37.070Z,22.43
2018-01-08T21:02:04.660Z,21.73
2018-01-08T21:04:36.013Z,20.60
2018-01-08T21:07:03.617Z,21.57
2018-01-08T21:09:31.236Z,23.63
2018-01-08T21:11:58.868Z,44.83
2018-01-08T21:14:27.279Z,24.17
2018-01-08T21:16:54.878Z,44.07
2018-01-08T21:19:22.483Z,25.80
2018-01-08T21:21:50.856Z,21.20
2018-01-08T21:24:21.175Z,22.23
2018-01-08T21:26:49.558Z,20.70
2018-01-08T21:29:17.992Z,24.30
2018-01-08T21:31:45.618Z,21.70
2018-01-08T21:34:13.216Z,24.33
2018-01-08T21:36:40.819Z,25.80
2018-01-08T21:39:09.181Z,22.17
2018-01-08T21:41:36.790Z,26.70
2018-01-08T21:44:04.407Z,27.90
2018-01-08T21:46:32.018Z,27.37
2018-01-08T21:48:59.675Z,22.17
2018-01-08T21:51:27.286Z,25.77
2018-01-08T21:53:54.895Z,23.57
2018-01-08T21:56:22.509Z,34.90
2018-01-08T21:58:50.112Z,25.00
2018-01-08T22:01:17.719Z,23.67
2018-01-08T22:03:45.339Z,57.10
2018-01-08T22:06:12.963Z,35.73
2018-01-08T22:08:40.586Z,30.40
2018-01-08T22:11:08.180Z,26.73
2018-01-08T22:13:46.266Z,27.67
2018-01-08T22:16:13.862Z,26.23
2018-01-08T22:18:41.488Z,27.73
2018-01-08T22:21:09.076Z,28.77
2018-01-08T22:23:36.674Z,27.40
2018-01-08T22:26:04.290Z,24.93
2018-01-08T22:28:31.889Z,25.33
2018-01-08T22:30:59.528Z,31.53
2018-01-08T22:33:27.135Z,26.80
2018-01-08T22:42:01.432Z,23.80
2018-01-08T22:44:29.020Z,24.83
2018-01-08T22:47:04.736Z,24.40
2018-01-08T22:49:32.355Z,23.73
2018-01-08T22:51:59.956Z,24.70
2018-01-08T22:54:27.556Z,25.60
2018-01-08T22:56:55.183Z,23.43
2018-01-08T22:59:22.803Z,24.60
2018-01-08T23:01:50.407Z,24.03
2018-01-08T23:04:18.028Z,23.20
2018-01-08T23:06:45.612Z,23.13
2018-01-08T23:09:13.220Z,24.47
2018-01-08T23:11:41.573Z,23.33
2018-01-08T23:14:09.179Z,24.20
2018-01-08T23:16:36.796Z,24.23
2018-01-08T23:19:04.420Z,24.67
2018-01-08T23:21:32.051Z,25.80
2018-01-08T23:24:00.451Z,26.03
2018-01-08T23:26:28.044Z,24.50
2018-01-08T23:28:55.629Z,24.33
2018-01-08T23:31:26.997Z,25.20
2018-01-08T23:33:55.379Z,24.30
2018-01-08T23:36:23.745Z,23.83
2018-01-08T23:38:51.380Z,24.20
2018-01-08T23:41:18.989Z,24.10
2018-01-08T23:43:47.362Z,22.73
2018-01-08T23:46:15.724Z,24.87
2018-01-08T23:48:43.312Z,25.03
2018-01-08T23:51:11.709Z,25.37
2018-01-08T23:53:39.306Z,24.93
2018-01-08T23:56:06.919Z,24.40
2018-01-08T23:58:34.512Z,24.60
